Metar Cercanos

 

LEPA - Palma De Mallorc, Spain
Distance from station: ONO 38km
Actualización: Sat, 06-Mar-2021 5:30pm CET
Parcialmente nuboso
Parcialmente nuboso
 Viento del ONO
Viento: ONO 11 km/h
Temperatura: 16°C
Rocío: 10°C
Humedad: 68%
Barómetro: 1021 hPa
Clouds: Parcialmente nuboso
Visibility: 10 km
Cloud details: Few Clouds 610 m
Parcialmente nuboso 1219 m
2021/03/06 16:30 LEPA 061630Z 29006KT 250V320 9999 FEW020 SCT040 16/10 Q1021 NOSIG
LEMH - Mahon/Menorca Is, Spain
Distance from station: ENE 105km
Actualización: Sat, 06-Mar-2021 5:30pm CET
Few Clouds
Few Clouds
 Viento del ENE
Viento: ENE 17 km/h
Temperatura: 14°C
Rocío: 10°C
Humedad: 77%
Barómetro: 1022 hPa
Clouds: Few Clouds
Visibility: 10 km
Cloud details: Few Clouds 488 m
2021/03/06 16:30 LEMH 061630Z 06009KT 030V100 9999 FEW016 14/10 Q1022
 
LEIB - Ibiza/Es Codola, Spain
Distance from station: OSO 165km
Actualización: Sat, 06-Mar-2021 5:30pm CET
Few Clouds
Few Clouds
 Viento del ENE
Viento: ENE 19 km/h
Temperatura: 15°C
Rocío: 10°C
Humedad: 72%
Barómetro: 1020 hPa
Clouds: Few Clouds
Visibility: 10 km
Cloud details: Few Clouds 518 m
2021/03/06 16:30 LEIB 061630Z 07010KT 9999 FEW017 15/10 Q1020 NOSIG
LEBL - Barcelona Airpor, Spain
Distance from station: NNO 225km
Actualización: Sat, 06-Mar-2021 5:30pm CET
Few Clouds
Few Clouds
 Viento del E
Viento: E 15 km/h
Temperatura: 14°C
Rocío: 8°C
Humedad: 67%
Barómetro: 1023 hPa
Clouds: Few Clouds
Visibility: 10 km
Cloud details: Few Clouds 1524 m
2021/03/06 16:30 LEBL 061630Z 09008KT 9999 FEW050 14/08 Q1023 NOSIG
 
LEVC - Valencia (civ/Mi, Spain
Distance from station: NO 188km
Actualización: Sat, 06-Mar-2021 5:30pm CET
Few Clouds
Few Clouds
 Viento del E
Viento: E 13 km/h
Temperatura: 15°C
Rocío: 10°C
Humedad: 72%
Barómetro: 1022 hPa
Clouds: Few Clouds
Visibility: 10 km
Cloud details: Few Clouds 610 m
2021/03/06 16:30 LEVC 061630Z 09007KT 060V120 9999 FEW020 15/10 Q1022 NOSIG
LEGE - Gerona/Costa Bra, Spain
Distance from station: N 276km
Actualización: Sat, 06-Mar-2021 5:30pm CET
Parcialmente nuboso
Parcialmente nuboso
 Viento del NNE
Viento: NNE 13 km/h
Temperatura: 12°C
Rocío: 8°C
Humedad: 77%
Barómetro: 1022 hPa
Clouds: Parcialmente nuboso
Visibility: 10 km
Cloud details: Parcialmente nuboso 2438 m
2021/03/06 16:30 LEGE 061630Z 02007KT 350V050 9999 SCT080 12/08 Q1022
 
LEAL - Alicante/El Alte, Spain
Distance from station: OSO 344km
Actualización: Sat, 06-Mar-2021 5:30pm CET
Parcialmente nuboso
Parcialmente nuboso
 Viento del ENE
Viento: ENE 26 km/h
Temperatura: 15°C
Rocío: 10°C
Humedad: 72%
Barómetro: 1020 hPa
Clouds: Parcialmente nuboso
Visibility: 10 km
Cloud details: Few Clouds 914 m
Parcialmente nuboso 2012 m
2021/03/06 16:30 LEAL 061630Z 07014KT 9999 FEW030 SCT066 15/10 Q1020 NOSIG
LEAM - Almeria Airport, Spain
Distance from station: SSO 56km
Actualización: Sat, 06-Mar-2021 5:30pm CET
Cubierto
Cubierto
 Viento del ENE
Viento: ENE 28 km/h, Racha: 46 km/h
Temperatura: 16°C
Rocío: 9°C
Humedad: 63%
Barómetro: 1017 hPa
Clouds: Cubierto
Visibility: 10 km
Cloud details: Few Clouds 762 m
Cubierto 2591 m
2021/03/06 16:30 LEAM 061630Z 06015G25KT 9999 FEW025 OVC085 16/09 Q1017
 
LEZG - Zaragoza (mil/Ci, Spain
Distance from station: NO 431km
Actualización: Sat, 06-Mar-2021 5:30pm CET
Few Clouds
Few Clouds
 Viento del E
Viento: E 9 km/h
Temperatura: 15°C
Rocío: 6°C
Humedad: 55%
Barómetro: 1020 hPa
Clouds: Few Clouds
Visibility: 10 km
Cloud details: Few Clouds 1219 m
2021/03/06 16:30 LEZG 061630Z 08005KT 050V160 9999 FEW040 15/06 Q1020
LEMD - Madrid/Barajas, Spain
Distance from station: ONO 234km
Actualización: Sat, 06-Mar-2021 5:30pm CET
Muy nuboso
Muy nuboso
 Viento del SE
Viento: SE 6 km/h
Temperatura: 15°C
Rocío: 5°C
Humedad: 51%
Barómetro: 1018 hPa
Clouds: Muy nuboso
Visibility: 10 km
Cloud details: Few Clouds 1524 m
Muy nuboso 2286 m
2021/03/06 16:30 LEMD 061630Z 13003KT 040V190 9999 FEW050 BKN075 15/05 Q1018 NOSIG
 
LEGR - Granada Airport, Spain
Distance from station: OSO 62km
Actualización: Sat, 06-Mar-2021 5:30pm CET
Muy nuboso
Muy nuboso
 Viento del calm
Viento: Calma
Temperatura: 16°C
Rocío: 7°C
Humedad: 55%
Barómetro: 1016 hPa
Clouds: Muy nuboso
Visibility: 10 km
Cloud details: Parcialmente nuboso 1311 m
Muy nuboso 1829 m
2021/03/06 16:30 LEGR 061630Z 00000KT 9999 SCT043 BKN060 16/07 Q1016
LEMG - Malaga (civ/Mil), Spain
Distance from station: OSO 227km
Actualización: Sat, 06-Mar-2021 5:30pm CET
Cubierto
Cubierto
 Viento del S
Viento: S 6 km/h
Temperatura: 16°C
Rocío: 11°C
Humedad: 72%
Barómetro: 1016 hPa
Clouds: Cubierto
Visibility: 9 km
Cloud details: Few Clouds 457 m
Cubierto 1737 m
2021/03/06 16:30 LEMG 061630Z 18003KT 160V220 9000 FEW015 OVC057 16/11 Q1016 NOSIG
 
LEZL - Sevilla (civ/Mil, Spain
Distance from station: S 318km
Actualización: Sat, 06-Mar-2021 5:30pm CET
Despejado
Despejado
 Viento del SSE
Viento: SSE 9 km/h
Temperatura: 15°C
Rocío: 11°C
Humedad: 77%
Barómetro: 1016 hPa
Resumen: Despejado
Visibility: greater than 10 km
2021/03/06 16:30 LEZL 061630Z 15005KT 120V200 CAVOK 15/11 Q1016 NOSIG
LEVT - Vitoria, Spain
Distance from station: NO 226km
Actualización: Sat, 06-Mar-2021 5:30pm CET
Cubierto
Cubierto
 Viento del NNE
Viento: NNE 13 km/h
Temperatura: 9°C
Sensación frio: 7°C
Rocío: 3°C
Humedad: 66%
Barómetro: 1022 hPa
Clouds: Cubierto
Visibility: 10 km
Cloud details: Cubierto 1036 m
2021/03/06 16:30 LEVT 061630Z 02007KT 350V050 9999 OVC034 09/03 Q1022
 
LEBB - Bilbao/Sondica, Spain
Distance from station: NNO 235km
Actualización: Sat, 06-Mar-2021 5:30pm CET
Muy nuboso
Muy nuboso
 Viento del NE
Viento: NE 9 km/h
Temperatura: 10°C
Sensación frio: 9°C
Rocío: 5°C
Humedad: 71%
Barómetro: 1023 hPa
Clouds: Muy nuboso
Visibility: 10 km
Cloud details: Few Clouds 914 m
Muy nuboso 1341 m
2021/03/06 16:30 LEBB 061630Z 04005KT 010V080 9999 FEW030 BKN044 10/05 Q1023 NOSIG
LESO - San Sebastian/Fu, Spain
Distance from station: N 231km
Actualización: Sat, 06-Mar-2021 5:30pm CET
Muy nuboso
Muy nuboso
 Viento del NNE
Viento: NNE 6 km/h
Temperatura: 10°C
Rocío: 4°C
Humedad: 67%
Barómetro: 1024 hPa
Clouds: Muy nuboso
Visibility: 10 km
Cloud details: Few Clouds 823 m
Muy nuboso 1128 m
2021/03/06 16:30 LESO 061630Z 02003KT 330V070 9999 FEW027 BKN037 10/04 Q1024
 
LEVD - Valladolid(Mil/C, Spain
Distance from station: ONO 239km
Actualización: Sat, 06-Mar-2021 5:30pm CET
Parcialmente nuboso
Parcialmente nuboso
 Viento del varies
Viento: varies 2 km/h
Temperatura: 14°C
Rocío: 3°C
Humedad: 48%
Barómetro: 1018 hPa
Clouds: Parcialmente nuboso
Visibility: 10 km
Cloud details: Parcialmente nuboso 1158 m
2021/03/06 16:30 LEVD 061630Z VRB01KT 9999 SCT038 14/03 Q1018
LESA - Salamanca (civ/M, Spain
Distance from station: ONO 349km
Actualización: Sat, 06-Mar-2021 5:30pm CET
Few Clouds
Few Clouds
 Viento del NNO
Viento: NNO 7 km/h
Temperatura: 13°C
Rocío: 4°C
Humedad: 55%
Barómetro: 1018 hPa
Clouds: Few Clouds
Visibility: 10 km
Cloud details: Few Clouds 1219 m
2021/03/06 16:30 LESA 061630Z 34004KT 280V020 9999 FEW040 13/04 Q1018
 
LEXJ - Santander/Paraya, Spain
Distance from station: NNO 247km
Actualización: Sat, 06-Mar-2021 5:30pm CET
Muy nuboso
Muy nuboso
 Viento del NE
Viento: NE 17 km/h
Temperatura: 10°C
Sensación frio: 8°C
Rocío: 6°C
Humedad: 76%
Barómetro: 1023 hPa
Clouds: Muy nuboso
Visibility: 10 km
Cloud details: Parcialmente nuboso 762 m
Muy nuboso 1524 m
2021/03/06 16:30 LEXJ 061630Z 05009KT 020V100 9999 SCT025 BKN050 10/06 Q1023
LEAS - Asturias/Aviles, Spain
Distance from station: NO 214km
Actualización: Sat, 06-Mar-2021 5:30pm CET
Muy nuboso
Muy nuboso
 Viento del E
Viento: E 15 km/h
Temperatura: 9°C
Sensación frio: 7°C
Rocío: 5°C
Humedad: 76%
Barómetro: 1023 hPa
Clouds: Muy nuboso
Visibility: 10 km
Cloud details: Parcialmente nuboso 671 m
Muy nuboso 1219 m
2021/03/06 16:30 LEAS 061630Z 08008KT 030V120 9999 SCT022 BKN040 09/05 Q1023 NOSIG
 
LECO - La Coruna/Alvedr, Spain
Distance from station: ONO 222km
Actualización: Sat, 06-Mar-2021 5:30pm CET
Despejado
Despejado
 Viento del NE
Viento: NE 22 km/h
Temperatura: 12°C
Rocío: 6°C
Humedad: 67%
Barómetro: 1021 hPa
Resumen: Despejado
Visibility: greater than 10 km
2021/03/06 16:30 LECO 061630Z 05012KT 330V070 CAVOK 12/06 Q1021 NOSIG
LEVX - Vigo/Peinador, Spain
Distance from station: O 214km
Actualización: Sat, 06-Mar-2021 5:30pm CET
Despejado
Despejado
 Viento del O
Viento: O 11 km/h
Temperatura: 17°C
Rocío: 8°C
Humedad: 56%
Barómetro: 1018 hPa
Resumen: Despejado
Visibility: greater than 10 km
2021/03/06 16:30 LEVX 061630Z 28006KT 240V340 CAVOK 17/08 Q1018 NOSIG